Time;durP1;ratioP1;P1;durP2;ratioP2;P2;SDS_P1;SDS_P2;PMS_P1;PMS_P2;Temp;Humidity;BMP_temperature;BMP_pressure;BME280_temperature;BME280_humidity;BME280_pressure;Samples;Min_cycle;Max_cycle;Signal;HPM_P1;HPM_P2
2021/01/01 00:00:38;;;;;;;13.63;12.23;;;3.70;96.80;;;;;;5059236;28;20040;-75
2021/01/01 00:03:04;;;;;;;18.10;13.05;;;3.80;63.40;;;;;;5059017;28;20089;-77
2021/01/01 00:05:30;;;;;;;17.38;13.13;;;3.80;50.60;;;;;;5058845;28;20013;-75
2021/01/01 00:07:56;;;;;;;12.43;10.40;;;3.90;44.20;;;;;;5041616;28;20021;-75
2021/01/01 00:10:21;;;;;;;10.05;8.77;;;4.00;26.50;;;;;;5058514;28;20204;-76
2021/01/01 00:12:48;;;;;;;9.23;8.32;;;4.00;12.30;;;;;;5058282;28;20044;-76
2021/01/01 00:15:14;;;;;;;8.88;7.72;;;4.00;6.30;;;;;;5057501;28;20029;-77
2021/01/01 00:17:40;;;;;;;8.32;6.35;;;4.10;1.00;;;;;;5056887;28;20122;-76
2021/01/01 00:20:09;;;;;;;8.27;6.80;;;4.10;1.00;;;;;;5058569;28;20033;-75
2021/01/01 00:22:35;;;;;;;7.78;7.05;;;4.10;1.00;;;;;;5040511;28;20064;-75
2021/01/01 00:25:01;;;;;;;7.88;7.07;;;4.20;1.00;;;;;;5057839;28;20060;-75
2021/01/01 00:27:30;;;;;;;9.00;7.20;;;4.20;1.00;;;;;;5058618;28;20045;-75
2021/01/01 00:29:56;;;;;;;7.90;7.10;;;4.20;1.00;;;;;;5058662;28;20026;-75
2021/01/01 00:32:22;;;;;;;8.63;7.70;;;4.20;1.00;;;;;;5041025;28;20033;-74
2021/01/01 00:34:48;;;;;;;8.13;7.32;;;4.20;1.00;;;;;;5058535;28;20021;-75
2021/01/01 00:37:14;;;;;;;7.93;7.13;;;4.20;1.00;;;;;;5057502;28;20060;-76
2021/01/01 00:39:40;;;;;;;13.30;9.95;;;4.30;1.00;;;;;;5055789;28;20018;-75
2021/01/01 00:42:05;;;;;;;19.63;15.93;;;4.50;1.00;;;;;;5057479;28;20040;-74
2021/01/01 00:44:31;;;;;;;22.23;16.90;;;4.60;1.00;;;;;;5057484;28;20071;-76
2021/01/01 00:46:57;;;;;;;18.45;16.02;;;4.50;1.00;;;;;;5057755;28;20026;-77
2021/01/01 00:49:23;;;;;;;20.88;17.23;;;4.40;1.00;;;;;;5051817;28;20034;-77
2021/01/01 00:51:48;;;;;;;20.17;15.13;;;4.20;1.00;;;;;;5058148;28;20034;-77
2021/01/01 00:54:14;;;;;;;24.05;17.20;;;4.00;21.90;;;;;;5056834;28;20085;-75
2021/01/01 00:56:40;;;;;;;20.35;16.10;;;4.00;43.40;;;;;;5035938;28;20052;-73
2021/01/01 00:59:06;;;;;;;21.00;17.10;;;4.00;34.00;;;;;;5048924;28;20118;-76
2021/01/01 01:01:31;;;;;;;34.72;20.52;;;3.90;58.10;;;;;;5048032;28;20040;-76
2021/01/01 01:03:57;;;;;;;16.40;13.40;;;3.90;58.50;;;;;;5048210;28;20029;-77
2021/01/01 01:06:25;;;;;;;37.30;21.58;;;4.10;28.90;;;;;;5046902;28;20064;-75
2021/01/01 01:08:52;;;;;;;26.27;17.00;;;4.10;22.80;;;;;;5057483;28;20025;-78
2021/01/01 01:11:28;;;;;;;14.80;12.27;;;4.10;27.20;;;;;;5054862;28;20017;-74
2021/01/01 01:13:55;;;;;;;11.60;9.57;;;4.00;39.20;;;;;;5056704;28;20074;-75
2021/01/01 01:16:23;;;;;;;9.88;8.18;;;4.00;13.80;;;;;;5057063;28;20040;-74
2021/01/01 01:18:48;;;;;;;10.60;9.45;;;4.00;12.10;;;;;;5039699;28;20093;-75
2021/01/01 01:21:14;;;;;;;9.68;8.63;;;3.90;11.00;;;;;;5046145;28;20045;-75
2021/01/01 01:23:39;;;;;;;10.90;8.48;;;4.00;9.70;;;;;;5035799;28;20056;-74
2021/01/01 01:26:05;;;;;;;11.25;9.60;;;4.00;11.40;;;;;;5054578;28;20064;-75
2021/01/01 01:28:32;;;;;;;9.70;8.63;;;4.00;14.50;;;;;;5055126;28;20053;-76
2021/01/01 01:30:57;;;;;;;9.60;8.60;;;4.00;3.30;;;;;;5055891;28;20093;-75
2021/01/01 01:33:23;;;;;;;10.82;8.85;;;4.00;1.00;;;;;;5038348;28;20029;-75
2021/01/01 01:35:48;;;;;;;12.68;8.48;;;3.90;1.00;;;;;;5038165;28;20089;-75
2021/01/01 01:38:14;;;;;;;11.32;10.13;;;4.00;2.50;;;;;;5038746;28;20045;-74
2021/01/01 01:40:39;;;;;;;10.45;9.35;;;3.90;5.60;;;;;;5056041;28;20040;-76
2021/01/01 01:43:05;;;;;;;9.60;8.52;;;4.00;13.30;;;;;;5055644;28;20037;-74
2021/01/01 01:45:30;;;;;;;9.15;8.15;;;4.00;25.50;;;;;;5055504;28;20061;-74
2021/01/01 01:47:59;;;;;;;9.77;8.77;;;4.00;5.30;;;;;;5038562;28;20047;-75
2021/01/01 01:50:25;;;;;;;13.50;10.40;;;4.10;1.00;;;;;;5056150;28;20022;-76
2021/01/01 01:52:51;;;;;;;9.85;8.75;;;4.00;1.00;;;;;;5055283;28;20022;-76
2021/01/01 01:55:17;;;;;;;9.00;8.10;;;4.10;1.00;;;;;;5053018;28;20013;-75
2021/01/01 01:57:43;;;;;;;9.38;8.38;;;4.10;1.00;;;;;;5045771;28;20037;-74
2021/01/01 02:02:52;;;;;;;;;;;4.10;1.00;;;;;;5055451;28;20034;-76
2021/01/01 02:05:18;;;;;;;8.18;7.28;;;4.00;1.00;;;;;;5036829;28;20319;-73
2021/01/01 02:07:45;;;;;;;9.25;8.25;;;4.10;1.00;;;;;;5036193;28;20029;-75
2021/01/01 02:10:11;;;;;;;8.57;7.78;;;4.10;1.00;;;;;;5036116;28;20056;-74
2021/01/01 02:12:37;;;;;;;8.25;7.45;;;4.10;1.00;;;;;;5054785;28;20026;-76
2021/01/01 02:15:03;;;;;;;8.90;8.00;;;4.20;1.00;;;;;;5055205;28;20014;-75
2021/01/01 02:17:29;;;;;;;9.05;8.05;;;4.10;1.00;;;;;;5038565;28;20054;-74
2021/01/01 02:20:04;;;;;;;9.75;7.35;;;4.10;1.00;;;;;;5044194;28;20029;-75
2021/01/01 02:22:38;;;;;;;8.00;7.13;;;4.20;1.00;;;;;;5055712;28;20037;-74
2021/01/01 02:25:06;;;;;;;7.35;6.57;;;4.20;1.00;;;;;;5056027;28;20017;-74
2021/01/01 02:27:32;;;;;;;8.98;8.05;;;4.20;1.00;;;;;;5055812;28;20033;-75
2021/01/01 02:29:58;;;;;;;8.18;7.32;;;4.20;1.00;;;;;;5055902;28;20065;-75
2021/01/01 02:32:23;;;;;;;8.15;7.35;;;4.20;1.00;;;;;;5056049;28;20025;-74
2021/01/01 02:34:49;;;;;;;8.13;7.18;;;4.20;1.00;;;;;;5055316;28;20024;-75
2021/01/01 02:37:15;;;;;;;9.38;8.48;;;4.20;1.00;;;;;;5055674;28;20026;-75
2021/01/01 02:39:41;;;;;;;9.05;8.15;;;4.20;1.00;;;;;;5055252;28;20033;-74
2021/01/01 02:42:06;;;;;;;8.50;7.70;;;4.30;1.00;;;;;;5055610;28;20021;-73
2021/01/01 02:44:32;;;;;;;9.32;8.43;;;4.30;1.00;;;;;;5055973;28;20043;-76
2021/01/01 02:47:05;;;;;;;7.20;6.50;;;4.20;1.00;;;;;;5039173;28;20029;-77
2021/01/01 02:49:31;;;;;;;10.10;8.85;;;4.30;1.00;;;;;;5056372;28;20032;-77
2021/01/01 02:51:58;;;;;;;7.75;6.82;;;4.30;1.00;;;;;;5056119;28;20020;-76
2021/01/01 02:54:23;;;;;;;8.95;7.60;;;4.20;1.00;;;;;;5056569;28;20041;-76
2021/01/01 02:56:49;;;;;;;9.50;8.15;;;4.30;1.00;;;;;;5056079;28;20024;-75
2021/01/01 02:59:14;;;;;;;8.27;7.45;;;4.30;1.00;;;;;;5039281;28;20021;-75
2021/01/01 03:01:40;;;;;;;8.93;8.00;;;4.30;1.00;;;;;;5055480;28;20057;-75
2021/01/01 03:04:06;;;;;;;9.55;8.23;;;4.20;1.00;;;;;;5055049;28;20064;-76
2021/01/01 03:06:31;;;;;;;8.35;7.55;;;4.20;1.00;;;;;;5038414;28;20017;-75
2021/01/01 03:08:57;;;;;;;8.18;7.32;;;4.30;1.00;;;;;;5057084;28;20033;-75
2021/01/01 03:11:23;;;;;;;8.85;7.85;;;4.30;1.00;;;;;;5059471;28;20033;-74
2021/01/01 03:13:48;;;;;;;9.82;7.57;;;4.30;10.40;;;;;;5059079;28;20055;-75
2021/01/01 03:16:14;;;;;;;8.38;7.38;;;4.30;17.50;;;;;;5058934;28;20040;-76
2021/01/01 03:18:39;;;;;;;8.55;7.50;;;4.20;24.10;;;;;;5041398;28;20037;-74
2021/01/01 03:21:05;;;;;;;9.13;8.23;;;4.20;26.40;;;;;;5058956;28;20068;-76
2021/01/01 03:23:30;;;;;;;8.20;7.25;;;4.30;23.60;;;;;;5054051;28;20037;-75
2021/01/01 03:25:56;;;;;;;8.70;7.78;;;4.20;31.00;;;;;;5058250;28;20021;-76
2021/01/01 03:28:22;;;;;;;9.13;7.72;;;4.20;42.30;;;;;;5041580;28;20083;-76
2021/01/01 03:30:47;;;;;;;9.60;8.60;;;4.30;41.30;;;;;;5058771;28;20010;-75
2021/01/01 03:33:13;;;;;;;9.77;8.77;;;4.20;66.50;;;;;;5058971;28;20041;-76
2021/01/01 03:35:40;;;;;;;10.77;9.40;;;4.30;76.20;;;;;;5059157;28;20036;-75
2021/01/01 03:38:06;;;;;;;12.98;10.20;;;4.20;93.20;;;;;;5041666;28;20021;-74
2021/01/01 03:40:32;;;;;;;9.93;8.82;;;4.10;99.90;;;;;;5058911;28;20021;-76
2021/01/01 03:42:58;;;;;;;12.07;10.13;;;4.10;95.00;;;;;;5041762;28;20033;-76
2021/01/01 03:45:24;;;;;;;11.95;10.73;;;4.10;99.90;;;;;;5058696;28;20030;-74
2021/01/01 03:47:50;;;;;;;11.63;9.65;;;4.10;99.90;;;;;;5058650;28;20120;-75
2021/01/01 03:50:16;;;;;;;13.15;10.43;;;4.10;99.90;;;;;;5041658;28;20018;-75
2021/01/01 03:52:41;;;;;;;10.13;9.05;;;4.10;99.90;;;;;;5040786;28;20017;-75
2021/01/01 03:55:07;;;;;;;11.50;10.30;;;4.00;99.90;;;;;;5059335;28;20036;-75
2021/01/01 03:57:33;;;;;;;14.98;10.23;;;4.00;99.90;;;;;;5058484;28;20092;-76
2021/01/01 03:59:58;;;;;;;10.48;9.38;;;4.00;99.90;;;;;;5040426;28;20029;-76
2021/01/01 04:02:24;;;;;;;13.63;11.07;;;4.00;99.90;;;;;;5057997;28;20056;-74
2021/01/01 04:04:50;;;;;;;12.95;10.38;;;4.00;99.90;;;;;;5058647;28;20044;-74
2021/01/01 04:07:16;;;;;;;11.88;10.38;;;4.00;99.90;;;;;;5058169;28;20069;-74
2021/01/01 04:09:42;;;;;;;11.32;9.18;;;4.00;99.90;;;;;;5057378;28;20034;-75
2021/01/01 04:12:08;;;;;;;13.70;10.90;;;4.00;99.90;;;;;;5058617;28;20014;-75
2021/01/01 04:14:34;;;;;;;11.50;9.65;;;4.00;99.90;;;;;;5058966;28;20049;-75
2021/01/01 04:16:59;;;;;;;10.90;9.80;;;4.00;99.90;;;;;;5057849;28;20041;-75
2021/01/01 04:19:25;;;;;;;12.40;9.90;;;3.90;99.90;;;;;;5041261;28;20119;-75
2021/01/01 04:21:51;;;;;;;11.50;10.40;;;3.90;99.90;;;;;;5055742;28;20033;-75
2021/01/01 04:24:17;;;;;;;11.90;10.63;;;4.00;99.90;;;;;;5058687;28;20016;-74
2021/01/01 04:26:44;;;;;;;11.55;10.32;;;4.00;99.90;;;;;;5041100;28;20316;-76
2021/01/01 04:29:09;;;;;;;11.48;9.45;;;4.00;99.90;;;;;;5058058;28;20019;-74
2021/01/01 04:31:36;;;;;;;11.23;9.30;;;3.90;99.90;;;;;;5058209;28;20025;-76
2021/01/01 04:34:03;;;;;;;10.82;8.82;;;3.90;99.90;;;;;;5058583;28;20048;-76
2021/01/01 04:36:29;;;;;;;11.73;10.15;;;3.90;99.90;;;;;;5058037;28;20026;-75
2021/01/01 04:38:54;;;;;;;10.88;9.40;;;3.90;99.90;;;;;;5057984;28;20037;-76
2021/01/01 04:41:21;;;;;;;11.43;9.38;;;3.90;99.90;;;;;;5041155;28;20045;-74
2021/01/01 04:43:51;;;;;;;12.52;10.13;;;3.90;99.90;;;;;;5040860;28;20037;-75
2021/01/01 04:46:17;;;;;;;11.70;9.75;;;3.80;99.90;;;;;;5041775;28;20040;-75
2021/01/01 04:48:44;;;;;;;11.23;8.63;;;3.80;99.90;;;;;;5058710;28;20101;-74
2021/01/01 04:51:10;;;;;;;12.13;9.27;;;3.80;99.90;;;;;;5058871;28;20018;-73
2021/01/01 04:53:37;;;;;;;10.77;9.52;;;3.80;99.90;;;;;;5058276;28;20048;-73
2021/01/01 04:56:04;;;;;;;10.98;9.88;;;3.90;99.90;;;;;;5058588;28;20018;-74
2021/01/01 04:58:30;;;;;;;10.43;8.90;;;3.90;99.90;;;;;;5041666;28;20009;-73
2021/01/01 05:00:56;;;;;;;9.50;8.43;;;3.90;99.90;;;;;;5058607;28;20018;-73
2021/01/01 05:03:21;;;;;;;9.27;8.13;;;4.10;99.90;;;;;;5058630;28;20021;-72
2021/01/01 05:05:50;;;;;;;8.98;8.07;;;4.20;99.90;;;;;;5058241;28;20016;-74
2021/01/01 05:08:17;;;;;;;11.63;9.18;;;4.40;99.90;;;;;;5041283;28;20022;-73
2021/01/01 05:10:43;;;;;;;8.70;7.60;;;4.40;45.30;;;;;;5040098;28;20189;-74
2021/01/01 05:13:11;;;;;;;11.30;9.60;;;4.30;95.30;;;;;;5056011;28;20024;-72
2021/01/01 05:15:37;;;;;;;11.10;8.43;;;4.30;99.90;;;;;;5057917;28;20025;-73
2021/01/01 05:18:24;;;;;;;11.30;9.15;;;4.60;92.20;;;;;;5058085;28;20017;-72
2021/01/01 05:20:53;;;;;;;12.68;10.07;;;4.60;63.70;;;;;;5062503;28;20044;-72
2021/01/01 05:23:20;;;;;;;12.52;10.15;;;4.60;87.30;;;;;;5046522;28;20032;-73
2021/01/01 05:25:48;;;;;;;14.77;11.93;;;4.50;96.00;;;;;;5057722;28;20017;-73
2021/01/01 05:28:14;;;;;;;15.30;11.27;;;4.50;99.10;;;;;;5040596;28;20025;-73
2021/01/01 05:30:41;;;;;;;15.40;11.13;;;4.50;98.80;;;;;;5053378;28;20033;-74
2021/01/01 05:33:13;;;;;;;12.30;10.52;;;4.50;99.90;;;;;;5056628;28;20025;-74
2021/01/01 05:35:39;;;;;;;15.35;12.10;;;4.60;98.80;;;;;;5040873;28;20020;-74
2021/01/01 05:38:16;;;;;;;11.02;9.20;;;4.60;99.10;;;;;;5040843;28;20029;-73
2021/01/01 05:40:42;;;;;;;11.23;9.40;;;4.50;78.80;;;;;;5040794;28;20040;-73
2021/01/01 05:43:22;;;;;;;13.98;10.50;;;4.30;99.90;;;;;;5057633;28;20021;-73
2021/01/01 05:45:48;;;;;;;12.27;10.48;;;4.10;99.90;;;;;;5057353;28;20080;-73
2021/01/01 05:48:16;;;;;;;13.07;10.73;;;4.10;99.90;;;;;;5057520;28;20050;-72
2021/01/01 05:50:42;;;;;;;13.50;11.60;;;4.20;99.90;;;;;;5057766;28;20044;-73
2021/01/01 05:53:09;;;;;;;14.82;11.93;;;4.10;99.90;;;;;;5057510;28;20041;-73
2021/01/01 05:55:34;;;;;;;13.68;11.00;;;4.10;99.90;;;;;;5057343;28;20089;-73
2021/01/01 05:58:00;;;;;;;17.77;12.45;;;4.00;99.90;;;;;;5057304;28;20028;-72
2021/01/01 06:00:26;;;;;;;14.35;11.95;;;3.90;99.90;;;;;;5057260;28;20029;-73
2021/01/01 06:02:56;;;;;;;16.95;11.77;;;3.90;99.90;;;;;;5057315;28;20048;-73
2021/01/01 06:05:25;;;;;;;16.25;12.68;;;3.80;99.90;;;;;;5057619;28;20239;-74
2021/01/01 06:07:52;;;;;;;16.45;12.93;;;3.80;99.90;;;;;;5056995;28;20029;-73
2021/01/01 06:10:19;;;;;;;13.52;10.50;;;3.80;99.90;;;;;;5057237;28;20029;-73
2021/01/01 06:12:51;;;;;;;14.30;11.55;;;3.60;99.90;;;;;;5056845;28;20084;-73
2021/01/01 06:15:22;;;;;;;13.02;10.48;;;3.60;99.90;;;;;;5056440;28;20401;-74
2021/01/01 06:17:52;;;;;;;11.75;9.95;;;3.60;99.90;;;;;;5056554;28;20024;-74
2021/01/01 06:20:19;;;;;;;8.90;7.82;;;3.40;99.90;;;;;;5049960;28;20087;-73
2021/01/01 06:23:07;;;;;;;9.63;8.48;;;3.40;99.90;;;;;;5037788;28;20037;-74
2021/01/01 06:25:34;;;;;;;10.77;8.40;;;3.30;99.90;;;;;;5020301;28;20069;-73
2021/01/01 06:28:00;;;;;;;9.95;8.63;;;3.30;99.90;;;;;;5054395;28;20044;-73
2021/01/01 06:30:27;;;;;;;8.60;7.55;;;3.30;99.90;;;;;;5057378;28;20017;-73
2021/01/01 06:32:53;;;;;;;8.57;7.38;;;3.20;99.90;;;;;;5055801;28;20499;-74
2021/01/01 06:35:21;;;;;;;9.43;8.15;;;3.20;99.90;;;;;;5048192;28;20029;-72
2021/01/01 06:37:49;;;;;;;9.27;7.00;;;3.10;99.90;;;;;;5047022;28;20029;-73
2021/01/01 06:40:20;;;;;;;8.25;7.43;;;3.10;99.90;;;;;;5056924;28;20013;-73
2021/01/01 06:42:56;;;;;;;9.73;7.68;;;3.30;99.90;;;;;;5056288;28;20033;-72
2021/01/01 06:45:39;;;;;;;7.65;6.47;;;3.20;99.90;;;;;;5059049;28;20073;-73
2021/01/01 06:48:08;;;;;;;9.60;6.90;;;3.10;99.90;;;;;;5057348;28;20040;-73
2021/01/01 06:50:36;;;;;;;9.32;7.38;;;3.20;99.90;;;;;;5057513;28;20044;-73
2021/01/01 06:53:08;;;;;;;7.47;6.05;;;3.10;99.90;;;;;;5057382;28;20013;-73
2021/01/01 06:55:41;;;;;;;7.45;6.75;;;3.10;99.90;;;;;;5055165;28;20032;-74
2021/01/01 06:58:07;;;;;;;7.63;6.88;;;3.00;99.90;;;;;;5039220;28;20017;-73
2021/01/01 07:00:45;;;;;;;7.30;6.55;;;3.10;99.90;;;;;;5032265;28;20033;-73
2021/01/01 07:03:29;;;;;;;8.13;6.68;;;3.10;99.90;;;;;;5045776;28;20056;-73
2021/01/01 07:05:55;;;;;;;8.32;5.70;;;3.20;99.90;;;;;;5027399;28;20393;-73
2021/01/01 07:08:56;;;;;;;6.32;5.63;;;3.20;99.90;;;;;;5044622;28;20071;-72
2021/01/01 07:11:22;;;;;;;6.28;5.68;;;3.20;99.90;;;;;;4963815;28;20105;-72
2021/01/01 07:13:48;;;;;;;6.22;5.70;;;3.30;99.90;;;;;;5027021;28;20349;-74
2021/01/01 07:16:16;;;;;;;7.93;6.22;;;3.20;99.90;;;;;;5050725;28;20030;-74
2021/01/01 07:18:41;;;;;;;6.72;5.80;;;3.30;99.90;;;;;;5037329;28;20032;-73
2021/01/01 07:21:08;;;;;;;6.78;6.07;;;3.30;99.90;;;;;;5047059;28;20029;-73
2021/01/01 07:23:35;;;;;;;7.32;6.63;;;3.30;99.90;;;;;;5031906;28;20032;-74
2021/01/01 07:26:02;;;;;;;6.78;6.05;;;3.30;99.90;;;;;;5054700;28;20017;-72
2021/01/01 07:28:29;;;;;;;5.80;5.15;;;3.30;99.90;;;;;;5048147;28;20030;-73
2021/01/01 07:30:54;;;;;;;7.25;5.13;;;3.30;99.90;;;;;;5038731;28;20025;-72
2021/01/01 07:33:25;;;;;;;6.07;5.47;;;3.30;99.90;;;;;;5039210;28;20075;-74
2021/01/01 07:35:54;;;;;;;6.17;5.57;;;3.30;99.90;;;;;;5021454;28;20017;-74
2021/01/01 07:38:21;;;;;;;6.63;5.15;;;3.30;99.90;;;;;;5039014;28;20029;-73
2021/01/01 07:40:47;;;;;;;6.28;5.68;;;3.30;99.90;;;;;;5038637;28;20033;-72
2021/01/01 07:43:13;;;;;;;6.15;5.60;;;3.30;99.90;;;;;;5038933;28;20037;-73
2021/01/01 07:45:39;;;;;;;6.75;4.95;;;3.30;99.90;;;;;;5040442;28;20024;-73
2021/01/01 07:48:05;;;;;;;7.22;5.60;;;3.30;99.90;;;;;;5040978;28;20052;-73
2021/01/01 07:50:32;;;;;;;6.82;6.22;;;3.30;99.90;;;;;;5042713;28;20029;-73
2021/01/01 07:53:05;;;;;;;7.90;6.07;;;3.40;99.90;;;;;;5042193;28;20099;-72
2021/01/01 07:55:32;;;;;;;5.75;4.68;;;3.50;99.90;;;;;;5042632;28;20109;-74
2021/01/01 07:58:04;;;;;;;5.45;4.82;;;3.40;99.90;;;;;;5042928;28;20049;-73
2021/01/01 08:00:31;;;;;;;5.57;4.95;;;3.40;99.90;;;;;;5044057;28;20034;-72
2021/01/01 08:02:56;;;;;;;7.10;5.20;;;3.40;99.90;;;;;;5042706;28;20029;-73
2021/01/01 08:05:22;;;;;;;4.72;4.00;;;3.40;99.90;;;;;;5044461;28;20025;-73
2021/01/01 08:07:48;;;;;;;5.47;4.97;;;3.40;81.40;;;;;;5025839;28;20026;-72
2021/01/01 08:10:14;;;;;;;4.90;4.15;;;3.40;99.90;;;;;;5043801;28;20025;-73
2021/01/01 08:12:48;;;;;;;4.35;3.70;;;3.40;98.90;;;;;;5044646;28;20034;-72
2021/01/01 08:15:26;;;;;;;3.75;3.42;;;3.40;84.70;;;;;;5043452;28;20631;-73
2021/01/01 08:17:51;;;;;;;5.13;4.57;;;3.40;83.00;;;;;;5043743;28;20033;-74
2021/01/01 08:20:17;;;;;;;4.63;4.00;;;3.50;89.30;;;;;;5044988;28;20043;-73
2021/01/01 08:22:46;;;;;;;4.60;4.20;;;3.50;90.00;;;;;;5034121;28;20056;-73
2021/01/01 08:25:13;;;;;;;4.22;3.83;;;3.50;93.30;;;;;;5040325;28;20027;-72
2021/01/01 08:27:39;;;;;;;4.82;3.95;;;3.60;87.10;;;;;;5057373;28;20068;-73
2021/01/01 08:30:06;;;;;;;4.50;4.03;;;3.60;42.60;;;;;;5057194;28;20044;-74
2021/01/01 08:32:34;;;;;;;4.40;4.00;;;3.60;71.10;;;;;;5057860;28;20017;-73
2021/01/01 08:35:01;;;;;;;4.97;4.00;;;3.60;41.90;;;;;;5040218;28;20036;-73
2021/01/01 08:37:27;;;;;;;4.45;3.90;;;3.70;73.60;;;;;;5057144;28;20099;-75
2021/01/01 08:40:05;;;;;;;3.90;3.45;;;3.60;1.00;;;;;;5039851;28;20018;-73
2021/01/01 08:42:34;;;;;;;4.47;3.80;;;3.70;1.00;;;;;;5057392;28;20034;-72
2021/01/01 08:45:06;;;;;;;5.18;4.68;;;3.70;1.00;;;;;;5057689;28;20029;-73
2021/01/01 08:47:37;;;;;;;4.90;4.40;;;3.70;10.80;;;;;;5041096;28;20014;-73
2021/01/01 08:50:04;;;;;;;4.43;3.70;;;3.70;1.00;;;;;;5057775;28;20025;-73
2021/01/01 08:52:31;;;;;;;4.28;3.88;;;3.70;1.10;;;;;;5057240;28;20029;-73
2021/01/01 08:54:57;;;;;;;3.92;3.53;;;3.70;17.90;;;;;;5057220;28;20033;-73
2021/01/01 08:57:31;;;;;;;4.82;4.40;;;3.70;6.30;;;;;;5057691;28;20048;-73
2021/01/01 08:59:58;;;;;;;4.28;3.60;;;3.70;9.50;;;;;;5057278;28;20097;-72
2021/01/01 09:02:26;;;;;;;3.97;3.58;;;3.90;1.00;;;;;;5057464;28;20125;-73
2021/01/01 09:04:52;;;;;;;4.18;3.78;;;4.00;1.00;;;;;;5039167;28;20025;-73
2021/01/01 09:07:18;;;;;;;5.05;3.90;;;4.10;1.00;;;;;;5057035;28;20056;-73
2021/01/01 09:09:43;;;;;;;4.57;4.18;;;4.00;1.00;;;;;;5057474;28;20021;-73
2021/01/01 09:12:20;;;;;;;4.13;3.80;;;3.90;1.00;;;;;;5056317;28;20021;-74
2021/01/01 09:14:56;;;;;;;4.00;3.60;;;3.90;1.00;;;;;;5045329;28;20085;-73
2021/01/01 09:17:23;;;;;;;2.70;2.50;;;3.90;1.00;;;;;;5055407;28;20037;-74
2021/01/01 09:20:03;;;;;;;3.72;3.42;;;3.90;1.00;;;;;;5037844;28;20032;-73
2021/01/01 09:22:32;;;;;;;3.25;2.95;;;4.00;1.00;;;;;;5039251;28;20497;-74
2021/01/01 09:25:21;;;;;;;5.53;4.20;;;4.00;1.00;;;;;;5054570;28;20040;-73
2021/01/01 09:27:48;;;;;;;4.60;3.90;;;4.10;1.00;;;;;;5055777;28;20032;-74
2021/01/01 09:30:18;;;;;;;3.47;3.17;;;4.20;1.00;;;;;;5055486;28;20033;-72
2021/01/01 09:32:50;;;;;;;3.95;3.55;;;4.20;1.00;;;;;;5038656;28;20056;-72
2021/01/01 09:35:17;;;;;;;4.35;3.95;;;4.20;1.00;;;;;;5055748;28;20102;-73
2021/01/01 09:37:52;;;;;;;4.13;3.65;;;4.20;1.00;;;;;;5055953;28;20088;-74
2021/01/01 09:40:19;;;;;;;6.72;5.25;;;4.40;1.00;;;;;;5041215;28;20006;-74
2021/01/01 09:42:45;;;;;;;4.30;3.90;;;4.50;1.00;;;;;;5056282;28;20033;-73
2021/01/01 09:45:12;;;;;;;3.25;2.85;;;4.50;1.00;;;;;;5055486;28;20080;-74
2021/01/01 09:47:37;;;;;;;2.67;2.47;;;4.40;99.90;;;;;;5056529;28;20040;-73
2021/01/01 09:50:05;;;;;;;3.30;2.95;;;4.40;99.90;;;;;;5056561;28;20038;-73
2021/01/01 09:52:31;;;;;;;3.25;2.95;;;4.40;99.90;;;;;;5057039;28;20085;-73
2021/01/01 09:54:56;;;;;;;3.20;2.90;;;4.40;99.90;;;;;;5056728;28;20022;-74
2021/01/01 09:57:22;;;;;;;4.40;3.58;;;4.40;99.90;;;;;;5056621;28;20017;-73
2021/01/01 09:59:47;;;;;;;3.58;3.00;;;4.50;99.90;;;;;;5056188;28;20010;-74
2021/01/01 10:02:13;;;;;;;3.17;2.85;;;4.40;99.90;;;;;;5056422;28;20044;-74
2021/01/01 10:04:38;;;;;;;3.60;3.30;;;4.40;99.90;;;;;;5039267;28;20017;-73
2021/01/01 10:07:04;;;;;;;3.05;2.67;;;4.50;1.00;;;;;;5056212;28;20085;-73
2021/01/01 10:09:29;;;;;;;3.28;3.08;;;4.50;99.90;;;;;;5056166;28;20018;-73
2021/01/01 10:11:57;;;;;;;3.30;2.90;;;4.60;99.90;;;;;;5057803;28;20017;-73
2021/01/01 10:14:23;;;;;;;2.92;2.72;;;4.70;99.90;;;;;;5039922;28;20041;-75
2021/01/01 10:16:49;;;;;;;2.97;2.78;;;4.70;99.90;;;;;;5055212;28;20057;-73
2021/01/01 10:19:15;;;;;;;3.40;2.85;;;4.50;99.90;;;;;;5038325;28;20013;-72
2021/01/01 10:21:42;;;;;;;3.63;2.92;;;4.50;99.90;;;;;;5056035;28;20045;-73
2021/01/01 10:24:07;;;;;;;3.30;3.00;;;4.60;99.90;;;;;;5056636;28;20044;-73
2021/01/01 10:26:33;;;;;;;2.88;2.67;;;4.80;99.90;;;;;;5057759;28;20038;-73
2021/01/01 10:28:58;;;;;;;3.15;2.85;;;4.90;99.90;;;;;;5056606;28;20033;-72
2021/01/01 10:31:24;;;;;;;3.60;3.30;;;4.90;99.90;;;;;;5056743;28;20044;-74
2021/01/01 10:33:50;;;;;;;4.10;3.70;;;4.90;99.90;;;;;;5055786;28;20017;-73
2021/01/01 10:36:15;;;;;;;4.18;3.78;;;4.90;99.90;;;;;;5045406;28;20037;-74
2021/01/01 10:38:42;;;;;;;3.78;3.47;;;5.00;99.90;;;;;;5042408;28;20056;-74
2021/01/01 10:41:14;;;;;;;4.25;3.85;;;5.00;99.90;;;;;;5041219;28;20401;-74
2021/01/01 10:43:41;;;;;;;5.50;4.10;;;5.20;99.90;;;;;;5020753;28;20022;-74
2021/01/01 10:46:07;;;;;;;5.20;4.40;;;5.30;99.90;;;;;;5037003;28;20039;-74
2021/01/01 10:48:32;;;;;;;3.55;3.25;;;5.30;99.90;;;;;;5034937;28;20033;-74
2021/01/01 10:50:58;;;;;;;3.83;3.35;;;5.10;37.10;;;;;;5034892;28;20021;-74
2021/01/01 10:53:24;;;;;;;3.85;3.53;;;5.00;99.90;;;;;;5020039;28;20093;-74
2021/01/01 10:55:52;;;;;;;4.25;3.78;;;4.80;99.90;;;;;;5037666;28;20077;-72
2021/01/01 10:58:23;;;;;;;5.07;4.57;;;4.80;99.90;;;;;;5037669;28;20314;-73
2021/01/01 11:00:56;;;;;;;4.47;3.83;;;4.70;99.90;;;;;;5038147;28;20100;-72
2021/01/01 11:03:22;;;;;;;4.47;4.07;;;4.80;99.90;;;;;;5019776;28;20404;-72
2021/01/01 11:05:48;;;;;;;4.85;4.45;;;4.70;99.90;;;;;;5036655;28;20049;-73
2021/01/01 11:08:14;;;;;;;4.72;4.30;;;4.80;99.90;;;;;;5018764;28;20053;-74
2021/01/01 11:10:40;;;;;;;4.57;4.18;;;4.90;99.90;;;;;;5036912;28;20476;-73
2021/01/01 11:13:06;;;;;;;5.18;4.68;;;4.90;43.50;;;;;;5037703;28;20104;-73
2021/01/01 12:24:58;;;;;;;4.70;4.07;;;5.20;1.00;;;;;;5039742;28;20024;-73
2021/01/01 12:27:30;;;;;;;3.70;3.33;;;5.10;1.00;;;;;;5044680;28;20448;-73
2021/01/01 12:29:56;;;;;;;3.97;3.50;;;5.10;1.00;;;;;;5042351;28;20035;-72
2021/01/01 12:32:22;;;;;;;4.25;3.85;;;5.10;1.00;;;;;;5024646;28;20453;-74
2021/01/01 12:34:49;;;;;;;4.18;3.78;;;5.10;1.00;;;;;;5044081;28;20086;-74
2021/01/01 12:37:15;;;;;;;3.75;3.35;;;5.20;1.00;;;;;;5044770;28;20029;-74
2021/01/01 12:39:40;;;;;;;4.82;3.97;;;5.30;1.00;;;;;;5025698;28;20509;-72
2021/01/01 12:42:06;;;;;;;3.80;3.40;;;5.40;1.00;;;;;;5041371;28;20025;-74
2021/01/01 12:44:32;;;;;;;4.18;3.78;;;5.40;1.00;;;;;;5041005;28;20076;-74
2021/01/01 12:47:02;;;;;;;4.88;4.38;;;5.40;1.00;;;;;;5039301;28;20477;-73
2021/01/01 12:49:27;;;;;;;4.15;3.75;;;5.30;1.00;;;;;;5039494;28;20719;-74
2021/01/01 12:51:53;;;;;;;4.50;3.50;;;5.30;1.00;;;;;;5029612;28;20030;-73
2021/01/01 12:54:19;;;;;;;5.80;5.13;;;5.40;1.00;;;;;;5020025;28;20057;-74
2021/01/01 12:56:45;;;;;;;4.55;4.00;;;5.50;1.00;;;;;;5020758;28;20022;-74
2021/01/01 12:59:10;;;;;;;5.05;4.55;;;5.60;1.00;;;;;;5019764;28;20029;-73
2021/01/01 13:01:36;;;;;;;4.90;4.45;;;5.50;1.00;;;;;;5011771;28;20049;-74
2021/01/01 13:04:03;;;;;;;4.57;4.18;;;5.40;1.00;;;;;;5038404;28;20029;-74
2021/01/01 13:06:28;;;;;;;5.18;4.40;;;5.30;1.00;;;;;;5026723;28;20089;-73
2021/01/01 13:08:57;;;;;;;5.22;4.72;;;5.40;1.00;;;;;;5031144;28;20056;-73
2021/01/01 13:11:25;;;;;;;5.88;4.82;;;5.80;99.90;;;;;;5037955;28;20108;-74
2021/01/01 13:13:50;;;;;;;5.65;5.00;;;5.80;99.90;;;;;;5037841;28;20026;-73
2021/01/01 13:16:25;;;;;;;7.45;5.10;;;5.30;1.00;;;;;;5019950;28;20089;-73
2021/01/01 13:18:50;;;;;;;5.82;4.65;;;5.20;1.00;;;;;;5020031;28;20284;-75
2021/01/01 13:21:26;;;;;;;5.72;4.88;;;5.30;1.00;;;;;;5039361;28;20057;-76
2021/01/01 13:23:52;;;;;;;5.70;4.47;;;5.20;1.00;;;;;;5039024;28;20022;-74
2021/01/01 13:26:19;;;;;;;5.55;4.93;;;5.00;1.00;;;;;;5038547;28;20018;-75
2021/01/01 13:28:45;;;;;;;6.05;5.43;;;4.90;1.00;;;;;;5038050;28;20024;-76
2021/01/01 13:31:10;;;;;;;5.25;4.75;;;5.10;1.00;;;;;;5038116;28;20033;-75
2021/01/01 13:33:36;;;;;;;6.07;5.47;;;5.30;1.00;;;;;;5038029;28;20107;-77
2021/01/01 13:36:02;;;;;;;5.63;5.03;;;5.10;1.00;;;;;;5038055;28;20064;-75
2021/01/01 13:38:27;;;;;;;5.30;4.80;;;5.30;1.00;;;;;;5034446;28;20026;-75
2021/01/01 13:40:53;;;;;;;6.22;4.93;;;5.50;1.00;;;;;;5037172;28;20076;-75
2021/01/01 13:43:18;;;;;;;5.80;5.25;;;5.60;1.00;;;;;;5036654;28;20040;-75
2021/01/01 13:45:45;;;;;;;5.38;4.82;;;5.50;1.00;;;;;;5036953;28;20025;-76
2021/01/01 13:48:11;;;;;;;6.22;5.63;;;5.30;1.00;;;;;;5036235;28;20492;-75
2021/01/01 13:50:36;;;;;;;6.00;5.40;;;5.20;1.00;;;;;;5035773;28;20175;-74
2021/01/01 13:53:03;;;;;;;6.07;5.45;;;5.10;1.00;;;;;;5019889;28;20358;-76
2021/01/01 13:55:29;;;;;;;5.07;4.57;;;5.10;1.00;;;;;;5038539;28;20025;-76
2021/01/01 13:57:55;;;;;;;5.68;5.07;;;5.00;99.90;;;;;;5035384;28;20459;-75
2021/01/01 14:00:20;;;;;;;4.97;4.50;;;4.90;1.00;;;;;;5039055;28;20024;-75
2021/01/01 14:02:46;;;;;;;5.40;4.68;;;4.80;1.00;;;;;;5020698;28;20026;-76
2021/01/01 14:05:12;;;;;;;5.03;4.53;;;4.90;1.00;;;;;;5037517;28;20044;-75
2021/01/01 14:07:39;;;;;;;5.45;4.80;;;5.00;1.00;;;;;;5037050;28;20022;-76